Time,TemperatureF,DewpointF,PressureIn,WindDirection,WindDirectionDegrees,WindSpeedMPH,WindSpeedGustMPH,Humidity,HourlyPrecipIn,Conditions,Clouds,dailyrainin,SoftwareType,DateUTC
2013-05-13 00:01:00,46.0,33.7,30.09,SSW,203,0.0,0.0,62,0.00,,,0.00,WUHU216HW,2013-05-13 04:01:00,
2013-05-13 00:07:00,45.8,33.5,30.10,SSW,203,0.0,0.0,62,0.00,,,0.00,WUHU216HW,2013-05-13 04:07:00,
2013-05-13 00:12:00,45.6,32.9,30.10,West,270,0.0,0.0,61,0.00,,,0.00,WUHU216HW,2013-05-13 04:12:00,
2013-05-13 00:18:00,45.6,32.9,30.10,West,270,0.0,0.0,61,0.00,,,0.00,WUHU216HW,2013-05-13 04:18:00,
2013-05-13 00:24:00,45.6,32.9,30.10,WSW,248,0.0,0.0,61,0.00,,,0.00,WUHU216HW,2013-05-13 04:24:00,
2013-05-13 00:29:00,45.6,32.9,30.10,SW,225,0.0,0.0,61,0.00,,,0.00,WUHU216HW,2013-05-13 04:29:00,
2013-05-13 00:34:00,45.6,32.9,30.10,WSW,248,0.0,0.0,61,0.00,,,0.00,WUHU216HW,2013-05-13 04:34:00,
2013-05-13 00:40:00,45.5,32.9,30.10,West,270,0.0,0.0,61,0.00,,,0.00,WUHU216HW,2013-05-13 04:40:00,
2013-05-13 00:45:00,45.5,33.2,30.10,West,270,0.0,0.0,62,0.00,,,0.00,WUHU216HW,2013-05-13 04:45:00,
2013-05-13 00:51:00,45.5,33.2,30.10,West,270,0.0,0.0,62,0.00,,,0.00,WUHU216HW,2013-05-13 04:51:00,
2013-05-13 00:56:00,45.3,33.0,30.10,SW,225,0.0,0.0,62,0.00,,,0.00,WUHU216HW,2013-05-13 04:56:00,
2013-05-13 01:01:00,45.3,33.0,30.10,SW,225,0.0,0.0,62,0.00,,,0.00,WUHU216HW,2013-05-13 05:01:00,
2013-05-13 01:07:00,45.1,32.8,30.10,West,270,0.0,0.0,62,0.00,,,0.00,WUHU216HW,2013-05-13 05:07:00,
2013-05-13 01:13:00,45.1,32.8,30.10,WSW,248,0.0,0.0,62,0.00,,,0.00,WUHU216HW,2013-05-13 05:13:00,
2013-05-13 01:24:00,44.9,32.7,30.10,WNW,293,0.0,0.0,62,0.00,,,0.00,WUHU216HW,2013-05-13 05:24:00,
2013-05-13 01:29:00,44.7,32.5,30.10,West,270,0.0,0.0,62,0.00,,,0.00,WUHU216HW,2013-05-13 05:29:00,
2013-05-13 01:35:00,44.4,32.5,30.10,WNW,293,0.0,0.0,63,0.00,,,0.00,WUHU216HW,2013-05-13 05:35:00,
2013-05-13 01:40:00,44.2,32.4,30.10,SW,225,0.0,0.0,63,0.00,,,0.00,WUHU216HW,2013-05-13 05:40:00,
2013-05-13 01:45:00,44.0,32.2,30.10,West,270,0.0,0.0,63,0.00,,,0.00,WUHU216HW,2013-05-13 05:45:00,
2013-05-13 01:50:00,43.7,31.8,30.09,West,270,0.0,0.0,63,0.00,,,0.00,WUHU216HW,2013-05-13 05:50:00,
2013-05-13 01:56:00,43.3,31.5,30.10,West,270,0.0,0.0,63,0.00,,,0.00,WUHU216HW,2013-05-13 05:56:00,
2013-05-13 02:01:00,43.1,31.7,30.10,SW,225,0.0,0.0,64,0.00,,,0.00,WUHU216HW,2013-05-13 06:01:00,
2013-05-13 02:07:00,42.6,31.2,30.10,West,270,0.0,0.0,64,0.00,,,0.00,WUHU216HW,2013-05-13 06:07:00,
2013-05-13 02:12:00,42.4,31.0,30.10,WSW,248,0.0,0.0,64,0.00,,,0.00,WUHU216HW,2013-05-13 06:12:00,
2013-05-13 02:18:00,42.0,31.1,30.09,SW,225,0.0,0.0,65,0.00,,,0.00,WUHU216HW,2013-05-13 06:18:00,
2013-05-13 02:23:00,41.7,30.7,30.09,SW,225,0.0,0.0,65,0.00,,,0.00,WUHU216HW,2013-05-13 06:23:00,
2013-05-13 02:28:00,41.5,30.6,30.09,West,270,0.0,0.0,65,0.00,,,0.00,WUHU216HW,2013-05-13 06:28:00,
2013-05-13 02:33:00,41.3,30.8,30.09,NW,315,0.0,0.0,66,0.00,,,0.00,WUHU216HW,2013-05-13 06:33:00,
2013-05-13 02:39:00,41.3,30.4,30.09,NW,315,0.0,0.0,65,0.00,,,0.00,WUHU216HW,2013-05-13 06:39:00,
2013-05-13 02:45:00,41.1,30.2,30.09,WSW,248,0.0,0.0,65,0.00,,,0.00,WUHU216HW,2013-05-13 06:45:00,
2013-05-13 02:50:00,41.0,30.4,30.10,SW,225,0.0,0.0,66,0.00,,,0.00,WUHU216HW,2013-05-13 06:50:00,
2013-05-13 02:55:00,40.8,30.3,30.10,SW,225,0.0,0.0,66,0.00,,,0.00,WUHU216HW,2013-05-13 06:55:00,
2013-05-13 03:01:00,40.6,30.5,30.10,SSW,203,0.0,0.0,67,0.00,,,0.00,WUHU216HW,2013-05-13 07:01:00,
2013-05-13 03:06:00,40.2,30.1,30.10,SSW,203,0.0,0.0,67,0.00,,,0.00,WUHU216HW,2013-05-13 07:06:00,
2013-05-13 03:12:00,40.1,29.9,30.10,West,270,0.0,0.0,67,0.00,,,0.00,WUHU216HW,2013-05-13 07:12:00,
2013-05-13 03:17:00,39.9,29.7,30.10,West,270,0.0,0.0,67,0.00,,,0.00,WUHU216HW,2013-05-13 07:17:00,
2013-05-13 03:23:00,39.9,29.7,30.10,SW,225,0.0,0.0,67,0.00,,,0.00,WUHU216HW,2013-05-13 07:23:00,
2013-05-13 03:28:00,39.5,29.4,30.09,SSW,203,0.0,0.0,67,0.00,,,0.00,WUHU216HW,2013-05-13 07:28:00,
2013-05-13 03:34:00,39.3,29.2,30.09,SSW,203,0.0,0.0,67,0.00,,,0.00,WUHU216HW,2013-05-13 07:34:00,
2013-05-13 03:40:00,39.3,29.2,30.09,SSW,203,0.0,0.0,67,0.00,,,0.00,WUHU216HW,2013-05-13 07:40:00,
2013-05-13 03:45:00,39.0,28.9,30.09,SSW,203,0.0,0.0,67,0.00,,,0.00,WUHU216HW,2013-05-13 07:45:00,
2013-05-13 03:50:00,38.8,29.1,30.09,SSW,203,0.0,0.0,68,0.00,,,0.00,WUHU216HW,2013-05-13 07:50:00,
2013-05-13 03:55:00,38.6,28.9,30.09,SSW,203,0.0,0.0,68,0.00,,,0.00,WUHU216HW,2013-05-13 07:55:00,
2013-05-13 04:00:00,38.4,28.7,30.09,SSW,203,0.0,0.0,68,0.00,,,0.00,WUHU216HW,2013-05-13 08:00:00,
2013-05-13 04:05:00,38.1,28.4,30.09,SSW,203,0.0,0.0,68,0.00,,,0.00,WUHU216HW,2013-05-13 08:05:00,
2013-05-13 04:11:00,37.7,28.1,30.10,SSW,203,0.0,0.0,68,0.00,,,0.00,WUHU216HW,2013-05-13 08:11:00,
2013-05-13 04:17:00,37.5,28.3,30.09,SSW,203,0.0,0.0,69,0.00,,,0.00,WUHU216HW,2013-05-13 08:17:00,
2013-05-13 04:22:00,37.2,28.0,30.09,SSW,203,0.0,0.0,69,0.00,,,0.00,WUHU216HW,2013-05-13 08:22:00,
2013-05-13 04:28:00,37.2,28.2,30.10,SSW,203,0.0,0.0,70,0.00,,,0.00,WUHU216HW,2013-05-13 08:28:00,
2013-05-13 04:34:00,36.8,28.0,30.09,SSW,203,0.0,0.0,70,0.00,,,0.00,WUHU216HW,2013-05-13 08:34:00,
2013-05-13 04:40:00,36.6,27.8,30.09,SSW,203,0.0,0.0,70,0.00,,,0.00,WUHU216HW,2013-05-13 08:40:00,
2013-05-13 04:45:00,36.3,27.5,30.09,SSW,203,0.0,0.0,70,0.00,,,0.00,WUHU216HW,2013-05-13 08:45:00,
2013-05-13 04:51:00,36.3,27.5,30.09,SSW,203,0.0,0.0,70,0.00,,,0.00,WUHU216HW,2013-05-13 08:51:00,
2013-05-13 04:56:00,36.1,27.6,30.09,SSW,203,0.0,0.0,71,0.00,,,0.00,WUHU216HW,2013-05-13 08:56:00,
2013-05-13 05:02:00,36.1,27.6,30.09,SSW,203,0.0,0.0,71,0.00,,,0.00,WUHU216HW,2013-05-13 09:02:00,
2013-05-13 05:07:00,35.9,27.4,30.09,SSW,203,0.0,0.0,71,0.00,,,0.00,WUHU216HW,2013-05-13 09:07:00,
2013-05-13 05:12:00,35.7,27.6,30.10,SSW,203,0.0,0.0,72,0.00,,,0.00,WUHU216HW,2013-05-13 09:12:00,
2013-05-13 05:17:00,35.7,27.6,30.10,SSW,203,0.0,0.0,72,0.00,,,0.00,WUHU216HW,2013-05-13 09:17:00,
2013-05-13 05:23:00,35.7,27.6,30.10,SSW,203,0.0,0.0,72,0.00,,,0.00,WUHU216HW,2013-05-13 09:23:00,
2013-05-13 05:28:00,35.4,27.2,30.10,SSW,203,0.0,0.0,72,0.00,,,0.00,WUHU216HW,2013-05-13 09:28:00,
2013-05-13 05:34:00,35.4,27.5,30.10,SSW,203,0.0,0.0,73,0.00,,,0.00,WUHU216HW,2013-05-13 09:34:00,
2013-05-13 05:40:00,35.4,27.5,30.10,SSW,203,0.0,0.0,73,0.00,,,0.00,WUHU216HW,2013-05-13 09:40:00,
2013-05-13 05:46:00,35.4,27.5,30.10,SSW,203,0.0,0.0,73,0.00,,,0.00,WUHU216HW,2013-05-13 09:46:00,
2013-05-13 05:52:00,35.4,27.8,30.10,SSW,203,0.0,0.0,74,0.00,,,0.00,WUHU216HW,2013-05-13 09:52:00,
2013-05-13 05:57:00,35.2,27.7,30.10,SSW,203,0.0,0.0,74,0.00,,,0.00,WUHU216HW,2013-05-13 09:57:00,
2013-05-13 06:02:00,35.2,27.7,30.10,SSW,203,0.0,0.0,74,0.00,,,0.00,WUHU216HW,2013-05-13 10:02:00,
2013-05-13 06:07:00,35.2,27.7,30.11,South,180,0.0,0.0,74,0.00,,,0.00,WUHU216HW,2013-05-13 10:07:00,
2013-05-13 06:13:00,35.2,27.7,30.11,South,180,0.0,0.0,74,0.00,,,0.00,WUHU216HW,2013-05-13 10:13:00,
2013-05-13 06:18:00,35.2,27.7,30.11,South,180,0.0,0.0,74,0.00,,,0.00,WUHU216HW,2013-05-13 10:18:00,
2013-05-13 06:23:00,35.2,27.7,30.11,SW,225,0.0,0.0,74,0.00,,,0.00,WUHU216HW,2013-05-13 10:23:00,
2013-05-13 06:29:00,35.4,27.8,30.11,SW,225,0.0,0.0,74,0.00,,,0.00,WUHU216HW,2013-05-13 10:29:00,
2013-05-13 06:34:00,35.4,27.8,30.11,SW,225,0.0,0.0,74,0.00,,,0.00,WUHU216HW,2013-05-13 10:34:00,
2013-05-13 06:39:00,35.7,28.5,30.11,WSW,248,0.0,0.0,75,0.00,,,0.00,WUHU216HW,2013-05-13 10:39:00,
2013-05-13 06:45:00,36.6,29.8,30.12,SSW,203,0.0,0.0,76,0.00,,,0.00,WUHU216HW,2013-05-13 10:45:00,
2013-05-13 06:50:00,37.4,30.5,30.12,SSW,203,0.0,0.0,76,0.00,,,0.00,WUHU216HW,2013-05-13 10:50:00,
2013-05-13 06:55:00,38.1,31.2,30.12,SSW,203,0.0,0.0,76,0.00,,,0.00,WUHU216HW,2013-05-13 10:55:00,
2013-05-13 07:01:00,39.3,32.4,30.12,South,180,0.0,0.0,76,0.00,,,0.00,WUHU216HW,2013-05-13 11:01:00,
2013-05-13 07:06:00,39.7,32.0,30.12,South,180,0.0,0.0,74,0.00,,,0.00,WUHU216HW,2013-05-13 11:06:00,
2013-05-13 07:12:00,40.2,32.5,30.13,South,180,0.0,0.0,74,0.00,,,0.00,WUHU216HW,2013-05-13 11:12:00,
2013-05-13 07:18:00,40.8,32.7,30.13,SSW,203,0.0,0.0,73,0.00,,,0.00,WUHU216HW,2013-05-13 11:18:00,
2013-05-13 07:24:00,41.1,32.8,30.13,SSE,158,0.0,0.0,72,0.00,,,0.00,WUHU216HW,2013-05-13 11:24:00,
2013-05-13 07:29:00,41.3,32.6,30.13,WSW,248,0.0,0.0,71,0.00,,,0.00,WUHU216HW,2013-05-13 11:29:00,
2013-05-13 07:34:00,41.5,32.8,30.13,West,270,0.0,0.0,71,0.00,,,0.00,WUHU216HW,2013-05-13 11:34:00,
2013-05-13 07:40:00,42.0,33.0,30.14,SSW,203,0.0,0.0,70,0.00,,,0.00,WUHU216HW,2013-05-13 11:40:00,
2013-05-13 07:45:00,42.4,33.2,30.14,WSW,248,0.0,0.0,69,0.00,,,0.00,WUHU216HW,2013-05-13 11:45:00,
2013-05-13 07:50:00,42.6,33.2,30.14,West,270,0.0,0.0,69,0.00,,,0.00,WUHU216HW,2013-05-13 11:50:00,
2013-05-13 07:56:00,42.9,33.5,30.14,WSW,248,0.0,0.0,69,0.00,,,0.00,WUHU216HW,2013-05-13 11:56:00,
2013-05-13 08:01:00,42.9,33.1,30.14,West,270,0.0,0.0,68,0.00,,,0.00,WUHU216HW,2013-05-13 12:01:00,
2013-05-13 08:06:00,43.1,32.9,30.15,WSW,248,0.0,0.0,67,0.00,,,0.00,WUHU216HW,2013-05-13 12:06:00,
2013-05-13 08:11:00,43.3,33.0,30.15,West,270,0.0,0.0,67,0.00,,,0.00,WUHU216HW,2013-05-13 12:11:00,
2013-05-13 08:17:00,43.5,32.8,30.15,WNW,293,0.0,0.0,66,0.00,,,0.00,WUHU216HW,2013-05-13 12:17:00,
2013-05-13 08:22:00,43.7,32.6,30.16,West,270,0.0,0.0,65,0.00,,,0.00,WUHU216HW,2013-05-13 12:22:00,
2013-05-13 08:28:00,43.8,32.8,30.16,SSW,203,0.0,0.0,65,0.00,,,0.00,WUHU216HW,2013-05-13 12:28:00,
2013-05-13 08:33:00,44.0,32.6,30.16,NW,315,0.0,0.0,64,0.00,,,0.00,WUHU216HW,2013-05-13 12:33:00,
2013-05-13 08:38:00,44.4,32.9,30.16,NW,315,0.0,0.0,64,0.00,,,0.00,WUHU216HW,2013-05-13 12:38:00,
2013-05-13 08:43:00,45.5,33.6,30.16,NW,315,0.0,0.0,63,0.00,,,0.00,WUHU216HW,2013-05-13 12:43:00,
2013-05-13 08:49:00,45.5,33.2,30.16,NNW,338,0.0,0.0,62,0.00,,,0.00,WUHU216HW,2013-05-13 12:49:00,
2013-05-13 08:55:00,45.8,33.5,30.16,West,270,2.9,2.9,62,0.00,,,0.00,WUHU216HW,2013-05-13 12:55:00,
2013-05-13 09:06:00,47.6,34.5,30.16,WSW,248,0.0,0.0,60,0.00,,,0.00,WUHU216HW,2013-05-13 13:06:00,
2013-05-13 09:11:00,48.5,34.4,30.16,NNW,338,0.0,0.0,58,0.00,,,0.00,WUHU216HW,2013-05-13 13:11:00,
2013-05-13 09:17:00,49.1,34.4,30.17,WSW,248,0.0,0.0,57,0.00,,,0.00,WUHU216HW,2013-05-13 13:17:00,
2013-05-13 09:22:00,49.2,34.1,30.17,NW,315,0.0,0.0,56,0.00,,,0.00,WUHU216HW,2013-05-13 13:22:00,
2013-05-13 09:28:00,49.2,34.1,30.16,West,270,0.0,0.0,56,0.00,,,0.00,WUHU216HW,2013-05-13 13:28:00,
2013-05-13 09:34:00,49.2,34.5,30.16,WSW,248,0.0,0.0,56,0.00,,,0.00,WUHU216HW,2013-05-13 13:34:00,
2013-05-13 09:40:00,49.8,34.7,30.16,WSW,248,0.0,0.0,56,0.00,,,0.00,WUHU216HW,2013-05-13 13:40:00,
2013-05-13 09:45:00,50.7,34.6,30.16,WSW,248,0.0,0.0,54,0.00,,,0.00,WUHU216HW,2013-05-13 13:45:00,
2013-05-13 09:51:00,50.7,34.6,30.17,NW,315,0.0,0.0,54,0.00,,,0.00,WUHU216HW,2013-05-13 13:51:00,
2013-05-13 09:56:00,50.1,33.6,30.17,WNW,293,0.0,0.0,53,0.00,,,0.00,WUHU216HW,2013-05-13 13:56:00,
2013-05-13 10:01:00,50.1,33.6,30.17,NNW,338,0.0,0.0,53,0.00,,,0.00,WUHU216HW,2013-05-13 14:01:00,
2013-05-13 10:07:00,51.0,35.4,30.17,NW,315,0.0,4.2,55,0.00,,,0.00,WUHU216HW,2013-05-13 14:07:00,
2013-05-13 10:12:00,51.4,34.8,30.17,WSW,248,0.0,4.2,53,0.00,,,0.00,WUHU216HW,2013-05-13 14:12:00,
2013-05-13 10:18:00,51.6,34.5,30.17,NW,315,0.0,0.0,52,0.00,,,0.00,WUHU216HW,2013-05-13 14:18:00,
2013-05-13 10:23:00,51.6,34.0,30.17,NW,315,0.0,0.0,51,0.00,,,0.00,WUHU216HW,2013-05-13 14:23:00,
2013-05-13 10:28:00,51.6,34.0,30.17,WNW,293,0.0,0.0,51,0.00,,,0.00,WUHU216HW,2013-05-13 14:28:00,
2013-05-13 10:34:00,51.8,33.8,30.17,South,180,1.7,1.7,50,0.00,,,0.00,WUHU216HW,2013-05-13 14:34:00,
2013-05-13 10:40:00,52.3,34.7,30.17,NW,315,0.0,1.7,51,0.00,,,0.00,WUHU216HW,2013-05-13 14:40:00,
2013-05-13 10:46:00,52.5,34.4,30.17,WNW,293,0.0,1.7,50,0.00,,,0.00,WUHU216HW,2013-05-13 14:46:00,
2013-05-13 10:51:00,52.8,34.7,30.17,WNW,293,0.0,0.0,50,0.00,,,0.00,WUHU216HW,2013-05-13 14:51:00,
2013-05-13 10:57:00,53.2,34.5,30.17,NW,315,3.1,3.1,49,0.00,,,0.00,WUHU216HW,2013-05-13 14:57:00,
2013-05-13 11:02:00,52.3,33.4,30.17,West,270,0.0,3.1,48,0.00,,,0.00,WUHU216HW,2013-05-13 15:02:00,
2013-05-13 11:07:00,52.3,33.7,30.18,NNW,338,0.0,3.1,49,0.00,,,0.00,WUHU216HW,2013-05-13 15:07:00,
2013-05-13 11:13:00,52.5,33.8,30.18,NW,315,0.0,0.0,49,0.00,,,0.00,WUHU216HW,2013-05-13 15:13:00,
2013-05-13 11:19:00,53.4,34.7,30.18,NNW,338,0.0,0.0,49,0.00,,,0.00,WUHU216HW,2013-05-13 15:19:00,
2013-05-13 11:25:00,54.1,34.7,30.18,West,270,0.0,0.0,48,0.00,,,0.00,WUHU216HW,2013-05-13 15:25:00,
2013-05-13 11:30:00,54.3,33.8,30.17,NNW,338,0.0,0.0,46,0.00,,,0.00,WUHU216HW,2013-05-13 15:30:00,
2013-05-13 11:36:00,53.9,34.0,30.17,SW,225,0.0,0.0,47,0.00,,,0.00,WUHU216HW,2013-05-13 15:36:00,
2013-05-13 11:41:00,53.2,32.8,30.17,WNW,293,0.0,0.0,46,0.00,,,0.00,WUHU216HW,2013-05-13 15:41:00,
2013-05-13 11:47:00,53.4,33.5,30.18,WSW,248,0.0,0.0,47,0.00,,,0.00,WUHU216HW,2013-05-13 15:47:00,
2013-05-13 11:53:00,53.9,34.6,30.17,NNW,338,0.0,0.0,48,0.00,,,0.00,WUHU216HW,2013-05-13 15:53:00,
2013-05-13 11:59:00,54.6,34.7,30.17,WSW,248,0.0,0.0,47,0.00,,,0.00,WUHU216HW,2013-05-13 15:59:00,
2013-05-13 12:04:00,55.2,34.0,30.17,West,270,3.3,3.3,46,0.00,,,0.00,WUHU216HW,2013-05-13 16:04:00,
2013-05-13 12:09:00,55.4,34.2,30.17,NNW,338,0.0,3.3,45,0.00,,,0.00,WUHU216HW,2013-05-13 16:09:00,
2013-05-13 12:14:00,55.7,34.5,30.17,WSW,248,0.0,3.3,45,0.00,,,0.00,WUHU216HW,2013-05-13 16:14:00,
2013-05-13 12:20:00,55.4,33.6,30.17,West,270,0.0,2.6,44,0.00,,,0.00,WUHU216HW,2013-05-13 16:20:00,
2013-05-13 12:25:00,55.7,34.0,30.17,NW,315,0.0,0.0,44,0.00,,,0.00,WUHU216HW,2013-05-13 16:25:00,
2013-05-13 12:30:00,56.3,34.5,30.16,SW,225,0.0,0.0,44,0.00,,,0.00,WUHU216HW,2013-05-13 16:30:00,
2013-05-13 12:36:00,56.1,34.3,30.17,NW,315,0.0,0.0,44,0.00,,,0.00,WUHU216HW,2013-05-13 16:36:00,
2013-05-13 12:41:00,55.7,34.0,30.16,NW,315,0.0,0.0,44,0.00,,,0.00,WUHU216HW,2013-05-13 16:41:00,
2013-05-13 12:46:00,55.9,34.1,30.16,North,0,0.0,0.0,44,0.00,,,0.00,WUHU216HW,2013-05-13 16:46:00,
2013-05-13 12:51:00,56.1,33.8,30.16,North,0,0.0,0.0,43,0.00,,,0.00,WUHU216HW,2013-05-13 16:51:00,
2013-05-13 12:56:00,55.9,33.6,30.16,NNW,338,1.7,1.7,43,0.00,,,0.00,WUHU216HW,2013-05-13 16:56:00,
2013-05-13 13:02:00,55.9,34.1,30.16,WSW,248,0.0,1.7,44,0.00,,,0.00,WUHU216HW,2013-05-13 17:02:00,
2013-05-13 13:08:00,56.1,34.3,30.16,West,270,0.0,0.0,44,0.00,,,0.00,WUHU216HW,2013-05-13 17:08:00,
2013-05-13 13:14:00,55.7,33.4,30.16,NW,315,2.4,2.4,43,0.00,,,0.00,WUHU216HW,2013-05-13 17:14:00,
2013-05-13 13:19:00,55.9,33.8,30.16,WNW,293,0.0,2.4,43,0.00,,,0.00,WUHU216HW,2013-05-13 17:19:00,
2013-05-13 13:24:00,56.8,35.0,30.16,SSW,203,0.0,2.4,44,0.00,,,0.00,WUHU216HW,2013-05-13 17:24:00,
2013-05-13 13:31:00,58.2,35.7,30.16,West,270,2.0,4.6,43,0.00,,,0.00,WUHU216HW,2013-05-13 17:31:00,
2013-05-13 13:36:00,57.3,33.8,30.16,WSW,248,3.1,4.6,41,0.00,,,0.00,WUHU216HW,2013-05-13 17:36:00,
2013-05-13 13:41:00,56.6,33.1,30.15,West,270,0.0,3.1,41,0.00,,,0.00,WUHU216HW,2013-05-13 17:41:00,
2013-05-13 13:47:00,56.1,33.2,30.15,WNW,293,0.0,3.1,42,0.00,,,0.00,WUHU216HW,2013-05-13 17:47:00,
2013-05-13 13:53:00,55.9,33.0,30.15,WNW,293,2.9,2.9,42,0.00,,,0.00,WUHU216HW,2013-05-13 17:53:00,
2013-05-13 13:59:00,55.5,32.7,30.15,NW,315,0.0,3.8,42,0.00,,,0.00,WUHU216HW,2013-05-13 17:59:00,
2013-05-13 14:04:00,56.1,33.2,30.15,WSW,248,0.0,3.8,42,0.00,,,0.00,WUHU216HW,2013-05-13 18:04:00,
2013-05-13 14:10:00,57.0,35.2,30.15,WNW,293,3.8,3.8,44,0.00,,,0.00,WUHU216HW,2013-05-13 18:10:00,
2013-05-13 14:15:00,57.7,34.7,30.15,WSW,248,2.6,3.8,42,0.00,,,0.00,WUHU216HW,2013-05-13 18:15:00,
2013-05-13 14:20:00,58.2,35.2,30.15,WSW,248,2.9,3.8,42,0.00,,,0.00,WUHU216HW,2013-05-13 18:20:00,
2013-05-13 14:25:00,58.2,34.0,30.15,WSW,248,0.0,2.9,40,0.00,,,0.00,WUHU216HW,2013-05-13 18:25:00,
2013-05-13 14:31:00,57.2,33.0,30.15,West,270,0.0,1.5,40,0.00,,,0.00,WUHU216HW,2013-05-13 18:31:00,
2013-05-13 14:36:00,57.0,32.9,30.15,WSW,248,0.0,2.0,40,0.00,,,0.00,WUHU216HW,2013-05-13 18:36:00,
2013-05-13 14:41:00,57.7,34.1,30.15,WSW,248,5.3,5.3,41,0.00,,,0.00,WUHU216HW,2013-05-13 18:41:00,
2013-05-13 14:47:00,58.2,34.0,30.15,NW,315,0.0,5.3,40,0.00,,,0.00,WUHU216HW,2013-05-13 18:47:00,
2013-05-13 14:52:00,57.5,33.4,30.16,West,270,0.0,5.3,40,0.00,,,0.00,WUHU216HW,2013-05-13 18:52:00,
2013-05-13 14:58:00,56.3,32.2,30.15,West,270,0.0,0.0,40,0.00,,,0.00,WUHU216HW,2013-05-13 18:58:00,
2013-05-13 15:03:00,55.7,32.3,30.15,NW,315,0.0,0.0,41,0.00,,,0.00,WUHU216HW,2013-05-13 19:03:00,
2013-05-13 15:09:00,55.5,32.1,30.16,NW,315,3.1,3.1,41,0.00,,,0.00,WUHU216HW,2013-05-13 19:09:00,
2013-05-13 15:14:00,55.2,31.8,30.16,NNE,23,0.0,3.1,41,0.00,,,0.00,WUHU216HW,2013-05-13 19:14:00,
2013-05-13 15:19:00,54.8,31.5,30.16,West,270,0.0,3.5,41,0.00,,,0.00,WUHU216HW,2013-05-13 19:19:00,
2013-05-13 15:24:00,54.5,31.2,30.16,NNE,23,0.0,3.5,41,0.00,,,0.00,WUHU216HW,2013-05-13 19:24:00,
2013-05-13 15:30:00,54.1,30.8,30.16,NW,315,0.0,0.8,41,0.00,,,0.00,WUHU216HW,2013-05-13 19:30:00,
2013-05-13 15:36:00,53.9,31.2,30.16,NNW,338,0.0,1.7,42,0.00,,,0.00,WUHU216HW,2013-05-13 19:36:00,
2013-05-13 15:42:00,54.1,31.4,30.15,WSW,248,0.0,1.7,42,0.00,,,0.00,WUHU216HW,2013-05-13 19:42:00,
2013-05-13 15:47:00,54.8,32.0,30.15,West,270,0.0,0.0,42,0.00,,,0.00,WUHU216HW,2013-05-13 19:47:00,
2013-05-13 15:52:00,55.5,32.7,30.15,WSW,248,2.6,3.3,42,0.00,,,0.00,WUHU216HW,2013-05-13 19:52:00,
2013-05-13 15:57:00,56.4,33.5,30.15,WSW,248,0.0,3.3,42,0.00,,,0.00,WUHU216HW,2013-05-13 19:57:00,
2013-05-13 16:02:00,58.1,35.0,30.15,WSW,248,0.0,2.6,42,0.00,,,0.00,WUHU216HW,2013-05-13 20:02:00,
2013-05-13 16:07:00,58.8,35.6,30.15,WSW,248,0.0,2.6,42,0.00,,,0.00,WUHU216HW,2013-05-13 20:07:00,
2013-05-13 16:13:00,58.8,34.5,30.15,NNE,23,0.0,0.0,40,0.00,,,0.00,WUHU216HW,2013-05-13 20:13:00,
2013-05-13 16:18:00,58.4,33.5,30.14,WSW,248,0.0,3.3,39,0.00,,,0.00,WUHU216HW,2013-05-13 20:18:00,
2013-05-13 16:23:00,58.2,34.0,30.15,WSW,248,0.0,3.3,40,0.00,,,0.00,WUHU216HW,2013-05-13 20:23:00,
2013-05-13 16:28:00,58.2,33.3,30.14,WSW,248,0.0,2.4,39,0.00,,,0.00,WUHU216HW,2013-05-13 20:28:00,
2013-05-13 16:34:00,58.6,34.3,30.14,WNW,293,0.0,1.1,40,0.00,,,0.00,WUHU216HW,2013-05-13 20:34:00,
2013-05-13 16:40:00,58.1,33.8,30.14,WSW,248,2.2,4.9,40,0.00,,,0.00,WUHU216HW,2013-05-13 20:40:00,
2013-05-13 16:45:00,58.2,33.3,30.14,WSW,248,0.0,4.9,39,0.00,,,0.00,WUHU216HW,2013-05-13 20:45:00,
2013-05-13 16:50:00,58.1,32.4,30.13,WSW,248,0.8,2.2,38,0.00,,,0.00,WUHU216HW,2013-05-13 20:50:00,
2013-05-13 16:55:00,57.7,32.8,30.14,WSW,248,0.0,0.8,39,0.00,,,0.00,WUHU216HW,2013-05-13 20:55:00,
2013-05-13 17:01:00,57.5,32.7,30.14,WSW,248,0.0,2.6,39,0.00,,,0.00,WUHU216HW,2013-05-13 21:01:00,
2013-05-13 17:07:00,57.3,33.2,30.13,NW,315,4.0,4.0,40,0.00,,,0.00,WUHU216HW,2013-05-13 21:07:00,
2013-05-13 17:12:00,57.0,32.2,30.13,West,270,0.0,4.0,39,0.00,,,0.00,WUHU216HW,2013-05-13 21:12:00,
2013-05-13 17:17:00,56.4,32.4,30.13,WSW,248,0.0,0.0,40,0.00,,,0.00,WUHU216HW,2013-05-13 21:17:00,
2013-05-13 17:22:00,56.3,31.5,30.13,NNW,338,0.0,0.8,39,0.00,,,0.00,WUHU216HW,2013-05-13 21:22:00,
2013-05-13 17:28:00,56.1,32.1,30.13,North,0,0.0,0.8,40,0.00,,,0.00,WUHU216HW,2013-05-13 21:28:00,
2013-05-13 17:33:00,56.3,32.2,30.13,WNW,293,0.0,0.0,40,0.00,,,0.00,WUHU216HW,2013-05-13 21:33:00,
2013-05-13 17:39:00,55.9,31.9,30.13,WSW,248,0.0,0.0,40,0.00,,,0.00,WUHU216HW,2013-05-13 21:39:00,
2013-05-13 17:44:00,55.9,31.9,30.13,WSW,248,2.9,4.9,40,0.00,,,0.00,WUHU216HW,2013-05-13 21:44:00,
2013-05-13 17:50:00,56.4,32.4,30.13,WNW,293,0.0,4.9,40,0.00,,,0.00,WUHU216HW,2013-05-13 21:50:00,
2013-05-13 17:56:00,56.3,32.2,30.14,NE,45,0.0,0.0,40,0.00,,,0.00,WUHU216HW,2013-05-13 21:56:00,
2013-05-13 18:01:00,55.9,31.9,30.13,WSW,248,0.0,0.0,40,0.00,,,0.00,WUHU216HW,2013-05-13 22:01:00,
2013-05-13 18:06:00,55.4,31.4,30.14,NNE,23,0.0,0.0,40,0.00,,,0.00,WUHU216HW,2013-05-13 22:06:00,
2013-05-13 18:11:00,55.2,31.2,30.14,NNW,338,0.0,0.0,40,0.00,,,0.00,WUHU216HW,2013-05-13 22:11:00,
2013-05-13 18:17:00,54.5,30.6,30.14,North,0,0.0,0.0,40,0.00,,,0.00,WUHU216HW,2013-05-13 22:17:00,
2013-05-13 18:22:00,54.5,31.2,30.14,NNW,338,0.0,0.0,41,0.00,,,0.00,WUHU216HW,2013-05-13 22:22:00,
2013-05-13 18:28:00,54.3,31.0,30.14,North,0,0.0,0.0,41,0.00,,,0.00,WUHU216HW,2013-05-13 22:28:00,
2013-05-13 18:33:00,54.1,30.8,30.14,NW,315,0.0,0.0,41,0.00,,,0.00,WUHU216HW,2013-05-13 22:33:00,
2013-05-13 18:39:00,54.1,30.8,30.14,North,0,0.0,0.0,41,0.00,,,0.00,WUHU216HW,2013-05-13 22:39:00,
2013-05-13 18:44:00,53.9,30.7,30.14,West,270,0.0,0.0,41,0.00,,,0.00,WUHU216HW,2013-05-13 22:44:00,
2013-05-13 18:49:00,53.7,31.1,30.14,WNW,293,0.0,0.0,42,0.00,,,0.00,WUHU216HW,2013-05-13 22:49:00,
2013-05-13 18:55:00,53.4,30.2,30.14,North,0,0.0,0.0,41,0.00,,,0.00,WUHU216HW,2013-05-13 22:55:00,
2013-05-13 19:00:00,53.2,30.6,30.14,WSW,248,0.0,0.0,42,0.00,,,0.00,WUHU216HW,2013-05-13 23:00:00,
2013-05-13 19:05:00,53.4,30.7,30.14,WSW,248,0.0,0.0,42,0.00,,,0.00,WUHU216HW,2013-05-13 23:05:00,
2013-05-13 19:10:00,53.4,30.2,30.14,NNW,338,0.0,0.0,41,0.00,,,0.00,WUHU216HW,2013-05-13 23:10:00,
2013-05-13 19:16:00,53.4,30.7,30.14,WSW,248,0.0,0.0,42,0.00,,,0.00,WUHU216HW,2013-05-13 23:16:00,
2013-05-13 19:21:00,53.4,30.7,30.14,NNW,338,0.0,0.0,42,0.00,,,0.00,WUHU216HW,2013-05-13 23:21:00,
2013-05-13 19:27:00,53.2,30.4,30.14,North,0,0.0,0.0,42,0.00,,,0.00,WUHU216HW,2013-05-13 23:27:00,
2013-05-13 19:33:00,52.8,30.3,30.14,NNE,23,0.0,0.0,42,0.00,,,0.00,WUHU216HW,2013-05-13 23:33:00,
2013-05-13 19:39:00,52.3,29.8,30.15,WNW,293,0.0,0.0,42,0.00,,,0.00,WUHU216HW,2013-05-13 23:39:00,
2013-05-13 19:45:00,52.1,29.6,30.15,NW,315,0.0,0.0,42,0.00,,,0.00,WUHU216HW,2013-05-13 23:45:00,
2013-05-13 19:51:00,51.9,29.4,30.14,WNW,293,0.0,0.0,42,0.00,,,0.00,WUHU216HW,2013-05-13 23:51:00,
2013-05-13 19:56:00,51.6,29.1,30.15,NNW,338,0.0,0.0,42,0.00,,,0.00,WUHU216HW,2013-05-13 23:56:00,
2013-05-13 20:02:00,51.6,29.1,30.15,NNE,23,0.0,0.0,42,0.00,,,0.00,WUHU216HW,2013-05-14 00:02:00,
2013-05-13 20:08:00,51.4,29.0,30.15,NNE,23,0.0,0.0,42,0.00,,,0.00,WUHU216HW,2013-05-14 00:08:00,
2013-05-13 20:14:00,50.9,28.3,30.15,North,0,0.0,0.0,42,0.00,,,0.00,WUHU216HW,2013-05-14 00:14:00,
2013-05-13 20:19:00,50.5,28.7,30.16,NNW,338,0.0,0.0,43,0.00,,,0.00,WUHU216HW,2013-05-14 00:19:00,
2013-05-13 20:25:00,50.1,28.4,30.16,West,270,0.0,0.0,43,0.00,,,0.00,WUHU216HW,2013-05-14 00:25:00,
2013-05-13 20:31:00,49.8,28.0,30.16,NNE,23,0.0,0.0,43,0.00,,,0.00,WUHU216HW,2013-05-14 00:31:00,
2013-05-13 20:36:00,49.4,27.7,30.16,NNE,23,0.0,0.0,43,0.00,,,0.00,WUHU216HW,2013-05-14 00:36:00,
2013-05-13 20:42:00,49.1,27.4,30.17,NNE,23,0.0,0.0,43,0.00,,,0.00,WUHU216HW,2013-05-14 00:42:00,
2013-05-13 20:47:00,48.9,27.2,30.17,North,0,0.0,0.0,43,0.00,,,0.00,WUHU216HW,2013-05-14 00:47:00,
2013-05-13 20:52:00,48.7,27.0,30.17,North,0,0.0,0.0,43,0.00,,,0.00,WUHU216HW,2013-05-14 00:52:00,
2013-05-13 20:57:00,48.3,26.9,30.17,North,0,0.0,0.0,43,0.00,,,0.00,WUHU216HW,2013-05-14 00:57:00,
2013-05-13 21:02:00,48.2,26.6,30.18,North,0,0.0,0.0,43,0.00,,,0.00,WUHU216HW,2013-05-14 01:02:00,
2013-05-13 21:08:00,47.8,26.8,30.18,North,0,0.0,0.0,44,0.00,,,0.00,WUHU216HW,2013-05-14 01:08:00,
2013-05-13 21:14:00,47.6,26.4,30.18,North,0,0.0,0.0,44,0.00,,,0.00,WUHU216HW,2013-05-14 01:14:00,
2013-05-13 21:19:00,47.3,26.3,30.19,North,0,0.0,0.0,44,0.00,,,0.00,WUHU216HW,2013-05-14 01:19:00,
2013-05-13 21:24:00,46.9,26.0,30.19,North,0,0.0,0.0,44,0.00,,,0.00,WUHU216HW,2013-05-14 01:24:00,
2013-05-13 21:29:00,46.5,26.3,30.19,North,0,0.0,0.0,45,0.00,,,0.00,WUHU216HW,2013-05-14 01:29:00,
2013-05-13 21:35:00,46.2,25.8,30.19,North,0,0.0,0.0,45,0.00,,,0.00,WUHU216HW,2013-05-14 01:35:00,
2013-05-13 21:40:00,46.0,26.2,30.20,North,0,0.0,0.0,46,0.00,,,0.00,WUHU216HW,2013-05-14 01:40:00,
2013-05-13 21:46:00,45.6,25.9,30.20,North,0,0.0,0.0,46,0.00,,,0.00,WUHU216HW,2013-05-14 01:46:00,
2013-05-13 21:51:00,45.1,26.0,30.20,North,0,0.0,0.0,47,0.00,,,0.00,WUHU216HW,2013-05-14 01:51:00,
2013-05-13 21:56:00,44.9,26.3,30.20,North,0,0.0,0.0,48,0.00,,,0.00,WUHU216HW,2013-05-14 01:56:00,
2013-05-13 22:02:00,44.4,26.9,30.20,North,0,0.0,0.0,50,0.00,,,0.00,WUHU216HW,2013-05-14 02:02:00,
2013-05-13 22:13:00,43.3,26.4,30.21,North,0,0.0,0.0,51,0.00,,,0.00,WUHU216HW,2013-05-14 02:13:00,
2013-05-13 22:19:00,42.8,26.3,30.21,North,0,0.0,0.0,52,0.00,,,0.00,WUHU216HW,2013-05-14 02:19:00,
2013-05-13 22:25:00,42.4,26.4,30.21,North,0,0.0,0.0,53,0.00,,,0.00,WUHU216HW,2013-05-14 02:25:00,
2013-05-13 22:31:00,42.0,26.3,30.21,North,0,0.0,0.0,53,0.00,,,0.00,WUHU216HW,2013-05-14 02:31:00,
2013-05-13 22:37:00,41.5,26.0,30.21,North,0,0.0,0.0,54,0.00,,,0.00,WUHU216HW,2013-05-14 02:37:00,
2013-05-13 22:43:00,41.3,26.3,30.21,North,0,0.0,0.0,55,0.00,,,0.00,WUHU216HW,2013-05-14 02:43:00,
2013-05-13 22:48:00,41.1,26.1,30.21,North,0,0.0,0.0,55,0.00,,,0.00,WUHU216HW,2013-05-14 02:48:00,
2013-05-13 22:54:00,40.8,26.2,30.21,North,0,0.0,0.0,56,0.00,,,0.00,WUHU216HW,2013-05-14 02:54:00,
2013-05-13 22:59:00,40.6,26.0,30.21,North,0,0.0,0.0,56,0.00,,,0.00,WUHU216HW,2013-05-14 02:59:00,
2013-05-13 23:05:00,40.2,26.1,30.21,North,0,0.0,0.0,57,0.00,,,0.00,WUHU216HW,2013-05-14 03:05:00,
2013-05-13 23:10:00,39.9,25.8,30.21,North,0,0.0,0.0,57,0.00,,,0.00,WUHU216HW,2013-05-14 03:10:00,
2013-05-13 23:21:00,39.5,25.8,30.21,North,0,0.0,0.0,58,0.00,,,0.00,WUHU216HW,2013-05-14 03:21:00,
2013-05-13 23:27:00,39.2,25.9,30.21,North,0,0.0,0.0,59,0.00,,,0.00,WUHU216HW,2013-05-14 03:27:00,
2013-05-13 23:32:00,39.0,25.8,30.21,North,0,0.0,0.0,59,0.00,,,0.00,WUHU216HW,2013-05-14 03:32:00,
2013-05-13 23:38:00,38.8,25.6,30.21,North,0,0.0,0.0,59,0.00,,,0.00,WUHU216HW,2013-05-14 03:38:00,
2013-05-13 23:44:00,38.4,25.7,30.21,North,0,0.0,0.0,60,0.00,,,0.00,WUHU216HW,2013-05-14 03:44:00,
2013-05-13 23:49:00,38.3,25.6,30.21,North,0,0.0,0.0,60,0.00,,,0.00,WUHU216HW,2013-05-14 03:49:00,
2013-05-13 23:54:00,38.1,25.4,30.21,North,0,0.0,0.0,60,0.00,,,0.00,WUHU216HW,2013-05-14 03:54:00,
2013-05-13 23:59:00,37.9,25.6,30.21,North,0,0.0,0.0,61,0.00,,,0.00,WUHU216HW,2013-05-14 03:59:00,